Ellington Field
KEFD : now visible

Airfield :











YOU CAN JOIN US ON...

 
LOGIN :

Register | Disclaimer

   EN    FR    IT 

 









Legend :    VFR   Marginal VFR   IFR   Intensive IFR   Very Intensive IFR
Visi :
Ceiling :
>= 8 km
>= 3000ft
5 to 8 km
1000 to 3000 ft
1500m to 5 km
500 to 1000 ft
800 to 1500m
200 to 500 ft
< 800m
< 200 ft
Symbols :   Thunderstorms  Fog  Heavy snow  Heavy precipitations  Wind > 20 kt






- Airport Elevation : 32 ft


KEFD - Ellington Field

CURRENT METAR :
  • 220350Z 14006KT 10SM SCT040 OVC250 23/20 A2999

EXPIRED METARs :
  • 220250Z 14008KT 10SM SCT040 OVC250 23/20 A2997
  • 220150Z 14010KT 10SM SCT040 OVC250 23/20 A2996

TAF TAF KEFD
Valid from the 22 at 04:00 until the 23 at 10:00 UTC


220400Z 2204/2310 15010KT 9999 SCT040 OVC250 QNH2992INS
BECMG 2205/2206 16009KT 9999 OVC030 QNH2992INS
BECMG 2215/2216 19006KT 6000 -SHRA VCTS OVC015CB QNH2990INS
BECMG 2223/2224 37006KT 9999 NSW BKN030 QNH2993INS TX26/2220Z TN15/2210Z



MET'MAP, your aeronautical weather chart ! - Copyright ORBIFLY December 2007 - Disclaimer

ORBIFLY MET'MAP TEAM :

Programming & Development : Alexandra Zaïnal
Concept & Development : Baudouin d'Aumeries
Co-Development & Prog : Marc-Olivier Méhu
Technical & hardware support : Manuel Goepfert

Contact : metmap@orbifly.com




SOURCES & CREDITS :

   NOAA       Earth
Advisory